createdAt,value
2022-11-27T00:01:39.869Z,68.17
2022-11-27T00:04:12.227Z,68.21
2022-11-27T00:06:44.195Z,68.19
2022-11-27T00:09:16.537Z,68.23
2022-11-27T00:11:47.906Z,68.27
2022-11-27T00:14:19.265Z,68.23
2022-11-27T00:16:50.553Z,68.25
2022-11-27T00:19:21.493Z,68.23
2022-11-27T00:21:52.376Z,68.20
2022-11-27T00:24:23.093Z,68.18
2022-11-27T00:26:54.082Z,68.17
2022-11-27T00:29:27.067Z,68.18
2022-11-27T00:31:58.393Z,68.18
2022-11-27T00:34:29.337Z,68.24
2022-11-27T00:37:00.591Z,68.06
2022-11-27T00:39:31.731Z,68.07
2022-11-27T00:42:02.714Z,68.03
2022-11-27T00:44:34.491Z,67.98
2022-11-27T00:47:05.424Z,68.04
2022-11-27T00:49:36.325Z,68.05
2022-11-27T00:52:07.441Z,68.01
2022-11-27T00:54:38.504Z,68.03
2022-11-27T00:57:09.608Z,68.07
2022-11-27T00:59:40.706Z,68.11
2022-11-27T01:02:11.590Z,68.14
2022-11-27T01:04:42.656Z,68.17
2022-11-27T01:07:13.576Z,68.11
2022-11-27T01:09:45.198Z,68.14
2022-11-27T01:12:16.059Z,68.21
2022-11-27T01:14:47.438Z,68.23
2022-11-27T01:17:18.497Z,68.27
2022-11-27T01:19:49.547Z,68.22
2022-11-27T01:22:20.765Z,68.18
2022-11-27T01:24:51.601Z,68.28
2022-11-27T01:27:22.494Z,68.22
2022-11-27T01:29:53.568Z,68.31
2022-11-27T01:32:24.363Z,68.28
2022-11-27T01:34:55.205Z,68.24
2022-11-27T01:37:26.344Z,68.19
2022-11-27T01:39:57.407Z,68.24
2022-11-27T01:42:28.655Z,68.30
2022-11-27T01:44:59.838Z,68.30
2022-11-27T01:47:36.736Z,68.30
2022-11-27T01:50:09.180Z,68.31
2022-11-27T01:52:41.528Z,68.36
2022-11-27T01:55:18.170Z,68.37
2022-11-27T01:57:50.746Z,68.41
2022-11-27T02:00:22.178Z,68.43
2022-11-27T02:02:53.124Z,68.36
2022-11-27T02:05:25.353Z,68.32
2022-11-27T02:07:57.812Z,68.34
2022-11-27T02:10:35.887Z,68.35
2022-11-27T02:13:08.191Z,68.34
2022-11-27T02:15:52.776Z,68.29
2022-11-27T02:18:25.255Z,68.31
2022-11-27T02:20:57.571Z,68.28
2022-11-27T02:23:46.028Z,68.37
2022-11-27T02:26:24.251Z,68.36
2022-11-27T02:29:02.501Z,68.36
2022-11-27T02:31:34.783Z,68.27
2022-11-27T02:34:07.121Z,68.25
2022-11-27T02:36:39.477Z,68.25
2022-11-27T02:39:11.910Z,68.28
2022-11-27T02:41:44.681Z,68.27
2022-11-27T02:44:16.940Z,68.29
2022-11-27T02:46:49.611Z,68.22
2022-11-27T02:49:21.170Z,68.33
2022-11-27T02:51:53.622Z,68.38
2022-11-27T02:54:25.941Z,68.42
2022-11-27T02:56:58.264Z,68.47
2022-11-27T02:59:30.426Z,68.61
2022-11-27T03:02:02.905Z,68.52
2022-11-27T03:04:35.214Z,68.66
2022-11-27T03:07:07.466Z,68.64
2022-11-27T03:09:42.733Z,68.63
2022-11-27T03:12:14.681Z,68.61
2022-11-27T03:14:46.282Z,68.52
2022-11-27T03:17:21.460Z,68.49
2022-11-27T03:19:53.794Z,68.47
2022-11-27T03:22:26.866Z,68.41
2022-11-27T03:24:58.072Z,68.39
2022-11-27T03:27:33.163Z,68.52
2022-11-27T03:30:05.410Z,68.59
2022-11-27T03:32:36.270Z,68.65
2022-11-27T03:35:08.699Z,68.70
2022-11-27T03:37:39.459Z,68.82
2022-11-27T03:40:10.724Z,68.67
2022-11-27T03:42:59.743Z,68.72
2022-11-27T03:45:32.077Z,68.79
2022-11-27T03:48:16.294Z,68.72
2022-11-27T03:50:48.478Z,68.60
2022-11-27T03:53:29.969Z,68.59
2022-11-27T03:56:20.215Z,68.61
2022-11-27T03:58:55.193Z,68.59
2022-11-27T04:01:27.114Z,68.57
2022-11-27T04:03:57.972Z,68.61
2022-11-27T04:06:28.948Z,68.68
2022-11-27T04:08:59.986Z,68.64
2022-11-27T04:11:31.138Z,68.54
2022-11-27T04:14:02.605Z,68.52
2022-11-27T04:16:33.937Z,68.29
2022-11-27T04:19:04.954Z,68.46
2022-11-27T04:21:35.835Z,68.61
2022-11-27T04:24:07.271Z,68.62
2022-11-27T04:26:38.127Z,68.43
2022-11-27T04:29:09.257Z,68.32
2022-11-27T04:31:40.305Z,68.37
2022-11-27T04:34:11.531Z,68.47
2022-11-27T04:36:42.594Z,68.37
2022-11-27T04:39:13.896Z,68.37
2022-11-27T04:41:44.979Z,68.44
2022-11-27T04:44:16.242Z,68.42
2022-11-27T04:46:47.608Z,68.43
2022-11-27T04:49:18.536Z,68.59
2022-11-27T04:51:49.487Z,68.51
2022-11-27T04:54:20.356Z,68.50
2022-11-27T04:56:51.137Z,68.49
2022-11-27T04:59:22.518Z,68.57
2022-11-27T05:01:53.362Z,68.58
2022-11-27T05:04:24.392Z,68.45
2022-11-27T05:06:55.175Z,68.57
2022-11-27T05:09:26.076Z,68.55
2022-11-27T05:11:57.064Z,68.57
2022-11-27T05:14:29.381Z,68.54
2022-11-27T05:17:00.751Z,68.37
2022-11-27T05:19:32.226Z,68.37
2022-11-27T05:22:03.560Z,68.31
2022-11-27T05:24:35.207Z,68.33
2022-11-27T05:27:06.399Z,68.44
2022-11-27T05:29:37.390Z,68.36
2022-11-27T05:32:08.313Z,68.32
2022-11-27T05:34:39.913Z,68.39
2022-11-27T05:37:17.912Z,68.35
2022-11-27T05:39:45.252Z,68.28
2022-11-27T05:42:16.222Z,68.24
2022-11-27T05:44:47.018Z,68.24
2022-11-27T05:47:18.154Z,68.34
2022-11-27T05:49:49.832Z,68.47
2022-11-27T05:52:21.308Z,68.57
2022-11-27T05:54:52.432Z,68.62
2022-11-27T05:57:23.557Z,68.53
2022-11-27T05:59:54.937Z,68.40
2022-11-27T06:02:29.373Z,68.39
2022-11-27T06:04:58.943Z,68.50
2022-11-27T06:07:30.140Z,68.52
2022-11-27T06:10:01.297Z,68.41
2022-11-27T06:12:33.244Z,68.51
2022-11-27T06:15:04.575Z,68.52
2022-11-27T06:17:36.345Z,68.43
2022-11-27T06:20:08.121Z,68.44
2022-11-27T06:22:38.961Z,68.57
2022-11-27T06:25:10.071Z,68.46
2022-11-27T06:27:41.323Z,68.48
2022-11-27T06:30:13.027Z,68.50
2022-11-27T06:32:44.180Z,68.67
2022-11-27T06:35:15.662Z,68.70
2022-11-27T06:37:47.010Z,68.62
2022-11-27T06:40:18.836Z,68.69
2022-11-27T06:42:50.114Z,68.70
2022-11-27T06:45:20.910Z,68.46
2022-11-27T06:47:51.906Z,68.71
2022-11-27T06:50:23.055Z,68.45
2022-11-27T06:52:53.827Z,68.55
2022-11-27T06:55:24.825Z,68.81
2022-11-27T06:57:55.915Z,68.55
2022-11-27T07:00:27.525Z,68.77
2022-11-27T07:02:58.421Z,68.73
2022-11-27T07:05:30.174Z,68.84
2022-11-27T07:08:01.119Z,68.58
2022-11-27T07:10:34.680Z,68.62
2022-11-27T07:13:06.291Z,68.61
2022-11-27T07:15:37.223Z,68.58
2022-11-27T07:18:08.188Z,68.54
2022-11-27T07:20:39.082Z,68.64
2022-11-27T07:23:10.212Z,68.69
2022-11-27T07:25:41.156Z,68.59
2022-11-27T07:28:18.549Z,68.66
2022-11-27T07:30:45.869Z,68.69
2022-11-27T07:33:17.475Z,68.76
2022-11-27T07:35:48.888Z,68.45
2022-11-27T07:38:20.376Z,68.36
2022-11-27T07:40:53.747Z,68.47
2022-11-27T07:43:23.656Z,68.30
2022-11-27T07:45:54.696Z,68.36
2022-11-27T07:48:25.757Z,68.28
2022-11-27T07:50:56.689Z,68.33
2022-11-27T07:53:28.142Z,68.05
2022-11-27T07:56:02.689Z,67.94
2022-11-27T07:58:33.925Z,67.92
2022-11-27T08:01:09.923Z,67.93
2022-11-27T08:03:42.876Z,67.86
2022-11-27T08:06:21.293Z,67.75
2022-11-27T08:08:53.192Z,67.84
2022-11-27T08:11:29.909Z,67.87
2022-11-27T08:14:02.149Z,68.04
2022-11-27T08:16:33.842Z,67.94
2022-11-27T08:19:05.537Z,67.88
2022-11-27T08:21:36.490Z,68.00
2022-11-27T08:24:07.813Z,67.87
2022-11-27T08:26:39.283Z,68.00
2022-11-27T08:31:51.746Z,68.15
2022-11-27T08:34:23.683Z,68.27
2022-11-27T08:36:54.690Z,68.42
2022-11-27T08:39:27.197Z,68.32
2022-11-27T08:42:00.377Z,68.38
2022-11-27T08:44:31.621Z,67.88
2022-11-27T08:47:03.280Z,68.02
2022-11-27T08:49:35.648Z,67.94
2022-11-27T08:52:07.920Z,67.81
2022-11-27T08:54:39.424Z,67.65
2022-11-27T08:57:11.255Z,67.67
2022-11-27T08:59:42.189Z,67.57
2022-11-27T09:02:13.995Z,67.33
2022-11-27T09:04:45.707Z,67.38
2022-11-27T09:07:17.214Z,67.34
2022-11-27T09:09:48.890Z,67.39
2022-11-27T09:12:20.907Z,67.22
2022-11-27T09:14:51.958Z,67.05
2022-11-27T09:17:23.088Z,66.97
2022-11-27T09:19:54.025Z,67.02
2022-11-27T09:22:25.465Z,67.02
2022-11-27T09:24:56.468Z,67.08
2022-11-27T09:27:29.904Z,67.12
2022-11-27T09:30:01.116Z,67.12
2022-11-27T09:32:32.504Z,67.01
2022-11-27T09:35:04.093Z,67.11
2022-11-27T09:37:35.351Z,67.10
2022-11-27T09:40:07.867Z,66.94
2022-11-27T09:42:43.113Z,67.01
2022-11-27T09:45:17.805Z,66.91
2022-11-27T09:47:50.602Z,66.89
2022-11-27T09:50:25.755Z,66.85
2022-11-27T09:53:01.699Z,66.89
2022-11-27T09:55:34.312Z,66.94
2022-11-27T09:58:09.280Z,66.88
2022-11-27T10:00:40.715Z,66.89
2022-11-27T10:03:15.687Z,66.82
2022-11-27T10:05:51.078Z,66.92
2022-11-27T10:08:23.631Z,66.86
2022-11-27T10:10:57.189Z,66.95
2022-11-27T10:13:32.969Z,66.83
2022-11-27T10:16:14.632Z,66.76
2022-11-27T10:18:48.143Z,66.60
2022-11-27T10:21:24.360Z,66.45
2022-11-27T10:23:57.825Z,66.37
2022-11-27T10:26:30.463Z,66.43
2022-11-27T10:29:03.059Z,66.25
2022-11-27T10:31:41.855Z,66.18
2022-11-27T10:34:18.879Z,65.83
2022-11-27T10:36:51.005Z,65.76
2022-11-27T10:39:23.967Z,65.76
2022-11-27T10:41:56.656Z,65.55
2022-11-27T10:44:31.578Z,65.48
2022-11-27T10:47:05.025Z,65.56
2022-11-27T10:49:37.441Z,65.67
2022-11-27T10:52:09.889Z,65.63
2022-11-27T10:54:41.618Z,65.54
2022-11-27T10:57:14.907Z,65.54
2022-11-27T11:00:05.608Z,65.33
2022-11-27T11:02:39.060Z,65.20
2022-11-27T11:05:37.722Z,65.31
2022-11-27T11:07:58.779Z,65.44
2022-11-27T11:10:31.910Z,65.42
2022-11-27T11:13:08.242Z,65.35
2022-11-27T11:15:52.843Z,65.24
2022-11-27T11:18:25.955Z,65.15
2022-11-27T11:20:59.088Z,65.15
2022-11-27T11:23:34.137Z,65.23
2022-11-27T11:26:06.805Z,65.21
2022-11-27T11:28:39.851Z,65.00
2022-11-27T11:31:12.488Z,64.88
2022-11-27T11:33:55.038Z,64.90
2022-11-27T11:36:27.491Z,65.16
2022-11-27T11:38:59.908Z,64.80
2022-11-27T11:41:38.973Z,64.92
2022-11-27T11:44:11.881Z,65.07
2022-11-27T11:46:44.266Z,65.13
2022-11-27T11:49:20.121Z,65.14
2022-11-27T11:51:53.277Z,65.18
2022-11-27T11:54:31.522Z,65.15
2022-11-27T11:57:04.480Z,65.09
2022-11-27T11:59:43.741Z,65.09
2022-11-27T12:02:30.872Z,65.14
2022-11-27T12:05:06.471Z,65.22
2022-11-27T12:07:39.231Z,65.00
2022-11-27T12:10:14.727Z,64.93
2022-11-27T12:13:05.351Z,65.01
2022-11-27T12:15:48.692Z,65.19
2022-11-27T12:18:21.111Z,64.96
2022-11-27T12:20:53.945Z,64.96
2022-11-27T12:23:26.384Z,65.07
2022-11-27T12:26:05.273Z,65.20
2022-11-27T12:28:58.953Z,65.20
2022-11-27T12:31:39.841Z,65.34
2022-11-27T12:34:24.593Z,65.50
2022-11-27T12:36:59.672Z,65.56
2022-11-27T12:39:32.300Z,65.60
2022-11-27T12:42:22.467Z,65.59
2022-11-27T12:45:07.690Z,65.60
2022-11-27T12:47:47.233Z,65.69
2022-11-27T12:50:27.635Z,65.76
2022-11-27T12:53:08.262Z,65.77
2022-11-27T12:55:40.696Z,65.86
2022-11-27T12:58:18.795Z,65.79
2022-11-27T13:00:50.679Z,65.90
2022-11-27T13:03:26.881Z,65.99
2022-11-27T13:06:05.489Z,66.04
2022-11-27T13:08:53.153Z,66.06
2022-11-27T13:11:28.396Z,66.16
2022-11-27T13:14:04.138Z,66.11
2022-11-27T13:16:41.473Z,66.15
2022-11-27T13:19:14.002Z,66.19
2022-11-27T13:21:46.719Z,66.30
2022-11-27T13:24:18.601Z,66.20
2022-11-27T13:26:57.311Z,66.34
2022-11-27T13:29:30.260Z,66.39
2022-11-27T13:32:03.109Z,66.35
2022-11-27T13:34:36.006Z,66.39
2022-11-27T13:37:08.385Z,66.44
2022-11-27T13:39:40.688Z,66.48
2022-11-27T13:42:16.629Z,66.51
2022-11-27T13:44:49.127Z,66.50
2022-11-27T13:47:21.844Z,66.59
2022-11-27T13:50:03.282Z,66.65
2022-11-27T13:52:35.440Z,66.68
2022-11-27T13:55:08.036Z,66.73
2022-11-27T13:57:39.690Z,66.66
2022-11-27T14:00:13.561Z,66.77
2022-11-27T14:02:49.461Z,66.73
2022-11-27T14:05:22.425Z,66.88
2022-11-27T14:07:55.489Z,66.89
2022-11-27T14:10:28.146Z,66.94
2022-11-27T14:13:06.209Z,67.00
2022-11-27T14:15:38.408Z,67.05
2022-11-27T14:18:20.515Z,67.08
2022-11-27T14:20:53.358Z,67.16
2022-11-27T14:23:29.090Z,67.20
2022-11-27T14:26:14.793Z,67.30
2022-11-27T14:28:44.685Z,67.39
2022-11-27T14:31:33.803Z,67.32
2022-11-27T14:34:16.117Z,67.90
2022-11-27T14:36:38.458Z,67.57
2022-11-27T14:39:11.189Z,67.57
2022-11-27T14:41:43.078Z,67.57
2022-11-27T14:44:16.077Z,67.57
2022-11-27T14:46:47.591Z,67.62
2022-11-27T14:49:20.823Z,67.61
2022-11-27T14:51:52.280Z,67.69
2022-11-27T14:54:30.853Z,67.68
2022-11-27T14:57:02.724Z,67.81
2022-11-27T14:59:34.074Z,67.86
2022-11-27T15:02:06.369Z,67.87
2022-11-27T15:04:38.826Z,67.96
2022-11-27T15:07:23.268Z,67.95
2022-11-27T15:09:56.113Z,67.95
2022-11-27T15:12:35.048Z,67.97
2022-11-27T15:15:10.530Z,68.05
2022-11-27T15:17:43.336Z,68.14
2022-11-27T15:20:16.279Z,68.08
2022-11-27T15:22:53.101Z,68.11
2022-11-27T15:25:31.407Z,68.11
2022-11-27T15:28:02.748Z,68.12
2022-11-27T15:30:34.774Z,68.16
2022-11-27T15:33:06.576Z,68.25
2022-11-27T15:35:37.871Z,68.27
2022-11-27T15:38:11.011Z,68.44
2022-11-27T15:40:42.807Z,68.32
2022-11-27T15:43:15.535Z,68.48
2022-11-27T15:45:47.420Z,68.48
2022-11-27T15:48:19.641Z,68.40
2022-11-27T15:50:52.044Z,68.41
2022-11-27T15:53:23.699Z,68.69
2022-11-27T15:55:55.399Z,68.62
2022-11-27T15:58:26.270Z,68.59
2022-11-27T16:00:57.723Z,68.63
2022-11-27T16:03:29.335Z,68.69
2022-11-27T16:06:04.470Z,68.73
2022-11-27T16:08:36.019Z,68.69
2022-11-27T16:11:08.542Z,68.71
2022-11-27T16:13:39.656Z,68.77
2022-11-27T16:16:11.426Z,68.75
2022-11-27T16:18:42.717Z,68.80
2022-11-27T16:21:14.915Z,68.84
2022-11-27T16:23:46.531Z,68.87
2022-11-27T16:26:17.928Z,68.85
2022-11-27T16:28:49.082Z,68.88
2022-11-27T16:31:21.626Z,68.88
2022-11-27T16:33:53.363Z,68.89
2022-11-27T16:36:25.877Z,68.90
2022-11-27T16:38:57.193Z,68.90
2022-11-27T16:41:28.463Z,68.93
2022-11-27T16:44:00.385Z,68.84
2022-11-27T16:46:31.783Z,68.88
2022-11-27T16:49:04.965Z,68.87
2022-11-27T16:51:38.099Z,68.94
2022-11-27T16:54:11.496Z,68.89
2022-11-27T16:56:44.292Z,68.92
2022-11-27T16:59:16.501Z,68.89
2022-11-27T17:01:47.516Z,68.85
2022-11-27T17:04:19.630Z,68.92
2022-11-27T17:06:50.900Z,68.92
2022-11-27T17:09:23.469Z,68.91
2022-11-27T17:11:54.953Z,68.91
2022-11-27T17:14:27.772Z,68.93
2022-11-27T17:16:58.813Z,68.87
2022-11-27T17:19:31.739Z,68.82
2022-11-27T17:22:03.703Z,68.83
2022-11-27T17:24:36.127Z,68.82
2022-11-27T17:27:08.530Z,68.78
2022-11-27T17:29:40.175Z,68.77
2022-11-27T17:32:13.079Z,68.80
2022-11-27T17:34:45.338Z,68.78
2022-11-27T17:37:16.673Z,68.73
2022-11-27T17:39:48.035Z,68.58
2022-11-27T17:42:22.681Z,68.58
2022-11-27T17:44:52.035Z,68.61
2022-11-27T17:47:23.480Z,68.62
2022-11-27T17:49:54.831Z,68.57
2022-11-27T17:52:25.747Z,68.56
2022-11-27T17:54:56.764Z,68.61
2022-11-27T17:57:27.738Z,68.70
2022-11-27T17:59:59.012Z,68.66
2022-11-27T18:02:32.148Z,68.64
2022-11-27T18:05:03.295Z,68.64
2022-11-27T18:07:34.128Z,68.53
2022-11-27T18:10:05.582Z,68.54
2022-11-27T18:12:36.635Z,68.63
2022-11-27T18:15:09.794Z,68.50
2022-11-27T18:17:41.338Z,68.51
2022-11-27T18:20:12.231Z,68.47
2022-11-27T18:22:43.108Z,68.51
2022-11-27T18:25:14.136Z,68.53
2022-11-27T18:27:45.457Z,68.51
2022-11-27T18:30:16.500Z,68.52
2022-11-27T18:32:47.479Z,68.54
2022-11-27T18:35:18.737Z,68.51
2022-11-27T18:37:49.564Z,68.47
2022-11-27T18:40:20.510Z,68.44
2022-11-27T18:42:51.802Z,68.44
2022-11-27T18:45:33.028Z,68.56
2022-11-27T18:47:55.451Z,68.47
2022-11-27T18:50:29.621Z,68.53
2022-11-27T18:52:59.734Z,68.40
2022-11-27T18:55:32.118Z,68.47
2022-11-27T18:58:02.967Z,68.48
2022-11-27T19:00:36.575Z,68.49
2022-11-27T19:03:07.501Z,68.52
2022-11-27T19:05:38.317Z,68.59
2022-11-27T19:08:10.449Z,68.75
2022-11-27T19:10:42.348Z,68.71
2022-11-27T19:13:13.524Z,68.75
2022-11-27T19:15:46.166Z,68.73
2022-11-27T19:18:17.427Z,68.74
2022-11-27T19:20:48.639Z,68.75
2022-11-27T19:23:19.822Z,68.77
2022-11-27T19:25:50.820Z,68.79
2022-11-27T19:28:23.122Z,68.80
2022-11-27T19:30:54.083Z,68.79
2022-11-27T19:33:25.468Z,68.82
2022-11-27T19:35:58.244Z,68.83
2022-11-27T19:38:29.668Z,68.77
2022-11-27T19:41:00.590Z,68.86
2022-11-27T19:43:31.617Z,68.77
2022-11-27T19:46:02.840Z,68.82
2022-11-27T19:48:33.851Z,68.83
2022-11-27T19:51:04.728Z,68.77
2022-11-27T19:53:35.629Z,68.67
2022-11-27T19:56:07.725Z,68.71
2022-11-27T19:58:38.985Z,68.73
2022-11-27T20:01:11.859Z,68.67
2022-11-27T20:03:43.275Z,68.78
2022-11-27T20:06:15.280Z,68.72
2022-11-27T20:08:46.900Z,68.73
2022-11-27T20:11:19.622Z,68.78
2022-11-27T20:13:50.791Z,68.71
2022-11-27T20:16:22.602Z,68.76
2022-11-27T20:18:53.631Z,68.78
2022-11-27T20:21:27.085Z,68.81
2022-11-27T20:23:58.361Z,68.81
2022-11-27T20:26:30.888Z,68.87
2022-11-27T20:29:03.095Z,68.84
2022-11-27T20:31:37.612Z,68.79
2022-11-27T20:34:09.537Z,68.81
2022-11-27T20:36:41.122Z,68.81
2022-11-27T20:39:17.717Z,68.83
2022-11-27T20:41:45.589Z,68.82
2022-11-27T20:44:16.844Z,68.57
2022-11-27T20:46:48.112Z,68.64
2022-11-27T20:49:20.744Z,68.51
2022-11-27T20:51:51.706Z,68.58
2022-11-27T20:54:26.288Z,68.58
2022-11-27T20:56:57.137Z,68.55
2022-11-27T20:59:28.041Z,68.64
2022-11-27T21:02:01.578Z,68.65
2022-11-27T21:04:33.339Z,68.63
2022-11-27T21:07:05.011Z,68.66
2022-11-27T21:09:36.104Z,68.69
2022-11-27T21:12:07.093Z,68.62
2022-11-27T21:14:38.407Z,68.62
2022-11-27T21:17:09.731Z,68.64
2022-11-27T21:19:41.160Z,68.62
2022-11-27T21:22:12.331Z,68.63
2022-11-27T21:24:43.740Z,68.66
2022-11-27T21:27:14.914Z,68.72
2022-11-27T21:29:46.550Z,68.72
2022-11-27T21:32:21.029Z,68.80
2022-11-27T21:34:52.433Z,68.76
2022-11-27T21:37:24.802Z,68.78
2022-11-27T21:39:56.569Z,68.73
2022-11-27T21:42:29.383Z,68.68
2022-11-27T21:45:00.777Z,68.80
2022-11-27T21:47:35.086Z,68.84
2022-11-27T21:50:06.511Z,68.86
2022-11-27T21:52:37.363Z,68.85
2022-11-27T21:55:12.125Z,68.84
2022-11-27T21:57:41.856Z,68.81
2022-11-27T22:00:13.020Z,68.87
2022-11-27T22:02:47.148Z,68.88
2022-11-27T22:05:18.823Z,68.87
2022-11-27T22:10:40.767Z,68.92
2022-11-27T22:13:11.704Z,69.00
2022-11-27T22:15:42.542Z,68.92
2022-11-27T22:18:13.757Z,68.97
2022-11-27T22:20:44.655Z,69.07
2022-11-27T22:23:15.660Z,68.98
2022-11-27T22:25:46.739Z,68.95
2022-11-27T22:28:17.924Z,69.14
2022-11-27T22:30:49.570Z,69.07
2022-11-27T22:33:20.931Z,68.96
2022-11-27T22:35:51.751Z,68.99
2022-11-27T22:38:22.752Z,69.01
2022-11-27T22:40:55.417Z,69.05
2022-11-27T22:43:26.387Z,69.07
2022-11-27T22:45:57.370Z,68.99
2022-11-27T22:48:28.663Z,69.07
2022-11-27T22:51:00.132Z,69.10
2022-11-27T22:53:31.670Z,69.10
2022-11-27T22:56:06.660Z,69.15
2022-11-27T22:58:41.338Z,69.21
2022-11-27T23:01:12.098Z,69.17
2022-11-27T23:03:43.197Z,69.25
2022-11-27T23:06:15.992Z,69.28
2022-11-27T23:08:47.380Z,69.25
2022-11-27T23:11:22.808Z,69.25
2022-11-27T23:13:54.636Z,69.28
2022-11-27T23:16:25.869Z,69.29
2022-11-27T23:18:57.547Z,69.38
2022-11-27T23:21:28.370Z,69.38
2022-11-27T23:23:59.471Z,69.41
2022-11-27T23:26:30.572Z,69.36
2022-11-27T23:29:01.540Z,69.28
2022-11-27T23:31:34.784Z,69.35
2022-11-27T23:34:07.748Z,69.33
2022-11-27T23:36:38.843Z,69.43
2022-11-27T23:39:11.018Z,69.39
2022-11-27T23:41:42.393Z,69.42
2022-11-27T23:44:13.295Z,69.47
2022-11-27T23:46:44.161Z,69.46
2022-11-27T23:49:15.190Z,69.51
2022-11-27T23:51:46.152Z,69.48
2022-11-27T23:54:17.066Z,69.61
2022-11-27T23:56:49.677Z,69.81
2022-11-27T23:59:20.791Z,69.70
